• Join FlightAware (Why Join?)
  • Login
  • US Flag 
01:56PM EDT


 

Airport Tracker/Info


-or-


 

Live Flight TrackerFlight Track Log ✈ N680AN ✈ 25-Apr-2013 ✈ SPIM / LIM - KDFW

Flight Track Log - Related Links

Times and Time Zones

All times are in EDT time to prevent confusion due to time zone crossing. See the N680AN flight status page for this flight to view local times or setup timezone preferences in your user account.

Time Position Orientation Groundspeed Altitude Reporting Facility
EDT Latitude Longitude Course Direction KTS MPH feet Rate Location/Type
03:04AM -11.6892 -77.2395 340° North  Level FlightAware Approximate
03:05AM -11.5784 -77.2812 340° North  Level FlightAware Approximate
03:06AM -11.4675 -77.3228 340° North  Level FlightAware Approximate
03:07AM -11.3565 -77.3644 340° North  Level FlightAware Approximate
03:08AM -11.2456 -77.4060 340° North  Level FlightAware Approximate
03:09AM -11.1347 -77.4475 340° North  Level FlightAware Approximate
03:10AM -11.0238 -77.4890 340° North  Level FlightAware Approximate
03:11AM -10.9129 -77.5304 340° North  Level FlightAware Approximate
03:12AM -10.8019 -77.5719 340° North  Level FlightAware Approximate
03:13AM -10.6910 -77.6133 340° North  Level FlightAware Approximate
03:14AM -10.5800 -77.6547 340° North  Level FlightAware Approximate
03:15AM -10.4691 -77.6960 340° North  Level FlightAware Approximate
03:16AM -10.3581 -77.7373 340° North  Level FlightAware Approximate
03:17AM -10.2472 -77.7786 340° North  Level FlightAware Approximate
03:18AM -10.1362 -77.8199 340° North  Level FlightAware Approximate
03:19AM -10.0201 -77.8637 339° North  Level FlightAware Approximate
03:20AM -9.9094 -77.9058 339° North  Level FlightAware Approximate
03:21AM -9.7988 -77.9478 339° North  Level FlightAware Approximate
03:22AM -9.6881 -77.9898 339° North  Level FlightAware Approximate
03:23AM -9.5774 -78.0318 339° North  Level FlightAware Approximate
03:24AM -9.4667 -78.0737 340° North  Level FlightAware Approximate
03:25AM -9.3560 -78.1156 340° North  Level FlightAware Approximate
03:26AM -9.2453 -78.1575 340° North  Level FlightAware Approximate
03:27AM -9.1346 -78.1994 340° North  Level FlightAware Approximate
03:28AM -9.0239 -78.2412 340° North  Level FlightAware Approximate
03:29AM -8.9132 -78.2830 340° North  Level FlightAware Approximate
03:30AM -8.8025 -78.3248 340° North  Level FlightAware Approximate
03:31AM -8.6918 -78.3666 340° North  Level FlightAware Approximate
03:32AM -8.5810 -78.4083 340° North  Level FlightAware Approximate
03:33AM -8.4703 -78.4500 340° North  Level FlightAware Approximate
03:34AM -8.3596 -78.4917 340° North  Level FlightAware Approximate
03:35AM -8.2488 -78.5334 340° North  Level FlightAware Approximate
03:36AM -8.1381 -78.5750 340° North  Level FlightAware Approximate
03:37AM -8.0274 -78.6167 340° North  Level FlightAware Approximate
03:38AM -7.9166 -78.6582 340° North  Level FlightAware Approximate
03:39AM -7.8059 -78.6998 340° North  Level FlightAware Approximate
03:40AM -7.6951 -78.7414 340° North  Level FlightAware Approximate
03:41AM -7.5843 -78.7829 340° North  Level FlightAware Approximate
03:42AM -7.4736 -78.8244 340° North  Level FlightAware Approximate
03:43AM -7.3628 -78.8659 340° North  Level FlightAware Approximate
03:44AM -7.2520 -78.9074 340° North  Level FlightAware Approximate
03:45AM -7.1412 -78.9488 340° North  Level FlightAware Approximate
03:46AM -7.0305 -78.9902 340° North  Level FlightAware Approximate
03:47AM -6.9197 -79.0317 340° North  Level FlightAware Approximate
03:48AM -6.8089 -79.0731 340° North  Level FlightAware Approximate
03:49AM -6.6981 -79.1144 340° North  Level FlightAware Approximate
03:50AM -6.5873 -79.1558 340° North  Level FlightAware Approximate
03:51AM -6.4765 -79.1971 340° North  Level FlightAware Approximate
03:52AM -6.3657 -79.2384 340° North  Level FlightAware Approximate
03:53AM -6.2549 -79.2797 340° North  Level FlightAware Approximate
03:54AM -6.1441 -79.3210 340° North  Level FlightAware Approximate
03:55AM -6.0333 -79.3622 340° North  Level FlightAware Approximate
03:56AM -5.9224 -79.4035 340° North  Level FlightAware Approximate
03:57AM -5.8116 -79.4447 340° North  Level FlightAware Approximate
03:58AM -5.7008 -79.4859 340° North  Level FlightAware Approximate
03:59AM -5.5900 -79.5271 340° North  Level FlightAware Approximate
04:00AM -5.4791 -79.5683 340° North  Level FlightAware Approximate
04:01AM -5.3683 -79.6095 340° North  Level FlightAware Approximate
04:02AM -5.2575 -79.6506 340° North  Level FlightAware Approximate
04:03AM -5.1466 -79.6917 340° North  Level FlightAware Approximate
04:04AM -5.0358 -79.7328 340° North  Level FlightAware Approximate
04:05AM -4.9250 -79.7740 340° North  Level FlightAware Approximate
04:06AM -4.8141 -79.8150 340° North  Level FlightAware Approximate
04:07AM -4.7033 -79.8561 340° North  Level FlightAware Approximate
04:08AM -4.5924 -79.8972 340° North  Level FlightAware Approximate
04:09AM -4.4816 -79.9382 340° North  Level FlightAware Approximate
04:10AM -4.3707 -79.9793 340° North  Level FlightAware Approximate
04:11AM -4.2599 -80.0203 340° North  Level FlightAware Approximate
04:12AM -4.1490 -80.0613 340° North  Level FlightAware Approximate
04:13AM -4.0381 -80.1023 340° North  Level FlightAware Approximate
04:14AM -3.9273 -80.1433 340° North  Level FlightAware Approximate
04:15AM -3.8164 -80.1843 340° North  Level FlightAware Approximate
04:16AM -3.7056 -80.2253 340° North  Level FlightAware Approximate
04:17AM -3.5947 -80.2662 340° North  Level FlightAware Approximate
04:18AM -3.4838 -80.3072 340° North  Level FlightAware Approximate
04:19AM -3.3730 -80.3481 340° North  Level FlightAware Approximate
04:20AM -3.2621 -80.3891 340° North  Level FlightAware Approximate
04:21AM -3.1512 -80.4300 340° North  Level FlightAware Approximate
04:22AM -3.0403 -80.4709 340° North  Level FlightAware Approximate
04:23AM -2.9295 -80.5118 340° North  Level FlightAware Approximate
04:24AM -2.8186 -80.5527 340° North  Level FlightAware Approximate
04:25AM -2.7077 -80.5936 340° North  Level FlightAware Approximate
04:26AM -2.5968 -80.6345 340° North  Level FlightAware Approximate
04:27AM -2.4859 -80.6754 340° North  Level FlightAware Approximate
04:28AM -2.3751 -80.7162 340° North  Level FlightAware Approximate
04:29AM -2.2642 -80.7571 340° North  Level FlightAware Approximate
04:30AM -2.1533 -80.7980 340° North  Level FlightAware Approximate
04:31AM -2.0424 -80.8388 340° North  Level FlightAware Approximate
04:32AM -1.9315 -80.8796 340° North  Level FlightAware Approximate
04:33AM -1.8206 -80.9205 340° North  Level FlightAware Approximate
04:34AM -1.7097 -80.9613 340° North  Level FlightAware Approximate
04:35AM -1.5988 -81.0022 340° North  Level FlightAware Approximate
04:36AM -1.4879 -81.0430 340° North  Level FlightAware Approximate
04:37AM -1.3770 -81.0838 340° North  Level FlightAware Approximate
04:38AM -1.2661 -81.1246 340° North  Level FlightAware Approximate
04:39AM -1.1553 -81.1654 340° North  Level FlightAware Approximate
04:40AM -1.0444 -81.2062 340° North  Level FlightAware Approximate
04:41AM -0.9335 -81.2470 340° North  Level FlightAware Approximate
04:42AM -0.8226 -81.2879 340° North  Level FlightAware Approximate
04:43AM -0.7117 -81.3287 340° North  Level FlightAware Approximate
04:44AM -0.6008 -81.3695 340° North  Level FlightAware Approximate
04:45AM -0.4899 -81.4103 340° North  Level FlightAware Approximate
04:46AM -0.3790 -81.4511 340° North  Level FlightAware Approximate
04:47AM -0.2681 -81.4919 340° North  Level FlightAware Approximate
04:48AM -0.1572 -81.5327 340° North  Level FlightAware Approximate
04:49AM -0.0463 -81.5735 340° North  Level FlightAware Approximate
04:50AM 0.0646 -81.6143 340° North  Level FlightAware Approximate
04:51AM 0.1755 -81.6551 340° North  Level FlightAware Approximate
04:52AM 0.2864 -81.6959 340° North  Level FlightAware Approximate
04:53AM 0.3973 -81.7367 340° North  Level FlightAware Approximate
04:54AM 0.5082 -81.7775 340° North  Level FlightAware Approximate
04:55AM 0.6191 -81.8183 340° North  Level FlightAware Approximate
04:56AM 0.7300 -81.8591 340° North  Level FlightAware Approximate
04:57AM 0.8409 -81.8999 340° North  Level FlightAware Approximate
04:58AM 0.9518 -81.9407 340° North  Level FlightAware Approximate
04:59AM 1.0627 -81.9815 340° North  Level FlightAware Approximate
05:00AM 1.1736 -82.0223 340° North  Level FlightAware Approximate
05:01AM 1.2845 -82.0631 340° North  Level FlightAware Approximate
05:02AM 1.3954 -82.1039 340° North  Level FlightAware Approximate
05:03AM 1.5063 -82.1447 340° North  Level FlightAware Approximate
05:04AM 1.6172 -82.1856 340° North  Level FlightAware Approximate
05:05AM 1.7281 -82.2264 340° North  Level FlightAware Approximate
05:06AM 1.8390 -82.2672 340° North  Level FlightAware Approximate
05:07AM 1.9499 -82.3081 340° North  Level FlightAware Approximate
05:08AM 2.0608 -82.3489 340° North  Level FlightAware Approximate
05:09AM 2.1716 -82.3898 340° North  Level FlightAware Approximate
05:10AM 2.2825 -82.4306 340° North  Level FlightAware Approximate
05:11AM 2.3934 -82.4715 340° North  Level FlightAware Approximate
05:12AM 2.5043 -82.5124 340° North  Level FlightAware Approximate
05:13AM 2.6152 -82.5533 340° North  Level FlightAware Approximate
05:14AM 2.7261 -82.5941 340° North  Level FlightAware Approximate
05:15AM 2.8370 -82.6350 340° North  Level FlightAware Approximate
05:16AM 2.9478 -82.6759 340° North  Level FlightAware Approximate
05:17AM 3.0587 -82.7168 340° North  Level FlightAware Approximate
05:18AM 3.1696 -82.7578 340° North  Level FlightAware Approximate
05:19AM 3.2805 -82.7987 340° North  Level FlightAware Approximate
05:20AM 3.3913 -82.8396 340° North  Level FlightAware Approximate
05:21AM 3.5022 -82.8805 340° North  Level FlightAware Approximate
05:22AM 3.6130 -82.9214 340° North  Level FlightAware Approximate
05:23AM 3.7240 -82.9621 340° North  Level FlightAware Approximate
05:24AM 3.8349 -83.0029 340° North  Level FlightAware Approximate
05:25AM 3.9459 -83.0436 340° North  Level FlightAware Approximate
05:26AM 4.0569 -83.0843 340° North  Level FlightAware Approximate
05:27AM 4.1678 -83.1251 340° North  Level FlightAware Approximate
05:28AM 4.2788 -83.1658 340° North  Level FlightAware Approximate
05:29AM 4.3897 -83.2066 340° North  Level FlightAware Approximate
05:30AM 4.5007 -83.2474 340° North  Level FlightAware Approximate
05:31AM 4.6116 -83.2882 340° North  Level FlightAware Approximate
05:32AM 4.7225 -83.3290 340° North  Level FlightAware Approximate
05:33AM 4.8335 -83.3698 340° North  Level FlightAware Approximate
05:34AM 4.9444 -83.4106 340° North  Level FlightAware Approximate
05:35AM 5.0554 -83.4515 340° North  Level FlightAware Approximate
05:36AM 5.1663 -83.4923 340° North  Level FlightAware Approximate
05:37AM 5.2772 -83.5332 340° North  Level FlightAware Approximate
05:38AM 5.3882 -83.5741 340° North  Level FlightAware Approximate
05:39AM 5.4991 -83.6150 340° North  Level FlightAware Approximate
05:40AM 5.6100 -83.6559 340° North  Level FlightAware Approximate
05:41AM 5.7209 -83.6969 340° North  Level FlightAware Approximate
05:42AM 5.8319 -83.7378 340° North  Level FlightAware Approximate
05:43AM 5.9428 -83.7788 340° North  Level FlightAware Approximate
05:44AM 6.0537 -83.8198 340° North  Level FlightAware Approximate
05:45AM 6.1646 -83.8608 340° North  Level FlightAware Approximate
05:46AM 6.2755 -83.9018 340° North  Level FlightAware Approximate
05:47AM 6.3864 -83.9428 340° North  Level FlightAware Approximate
05:48AM 6.4973 -83.9839 340° North  Level FlightAware Approximate
05:49AM 6.6082 -84.0250 340° North  Level FlightAware Approximate
05:50AM 6.7191 -84.0661 340° North  Level FlightAware Approximate
05:51AM 6.8300 -84.1072 340° North  Level FlightAware Approximate
05:52AM 6.9408 -84.1483 340° North  Level FlightAware Approximate
05:53AM 7.0517 -84.1895 340° North  Level FlightAware Approximate
05:54AM 7.1626 -84.2306 340° North  Level FlightAware Approximate
05:55AM 7.2735 -84.2718 340° North  Level FlightAware Approximate
05:56AM 7.3843 -84.3130 340° North  Level FlightAware Approximate
05:57AM 7.4952 -84.3542 340° North  Level FlightAware Approximate
05:58AM 7.6061 -84.3955 340° North  Level FlightAware Approximate
05:59AM 7.7169 -84.4368 340° North  Level FlightAware Approximate
06:00AM 7.8278 -84.4781 340° North  Level FlightAware Approximate
06:01AM 7.9386 -84.5194 340° North  Level FlightAware Approximate
06:02AM 8.0495 -84.5607 340° North  Level FlightAware Approximate
06:03AM 8.1603 -84.6021 340° North  Level FlightAware Approximate
06:04AM 8.2712 -84.6434 340° North  Level FlightAware Approximate
06:05AM 8.3820 -84.6849 340° North  Level FlightAware Approximate
06:06AM 8.4928 -84.7265 340° North  Level FlightAware Approximate
06:07AM 8.6035 -84.7681 340° North  Level FlightAware Approximate
06:08AM 8.7143 -84.8097 340° North  Level FlightAware Approximate
06:09AM 8.8251 -84.8513 340° North  Level FlightAware Approximate
06:10AM 8.9358 -84.8930 340° North  Level FlightAware Approximate
06:11AM 9.0466 -84.9347 340° North  Level FlightAware Approximate
06:12AM 9.1573 -84.9764 340° North  Level FlightAware Approximate
06:13AM 9.2681 -85.0182 340° North  Level FlightAware Approximate
06:14AM 9.3788 -85.0600 340° North  Level FlightAware Approximate
06:15AM 9.4895 -85.1018 340° North  Level FlightAware Approximate
06:16AM 9.6003 -85.1436 340° North  Level FlightAware Approximate
06:17AM 9.7110 -85.1855 340° North  Level FlightAware Approximate
06:18AM 9.8217 -85.2273 340° North  Level FlightAware Approximate
06:19AM 9.9324 -85.2692 340° North  Level FlightAware Approximate
06:20AM 10.0431 -85.3112 340° North  Level FlightAware Approximate
06:21AM 10.1538 -85.3532 340° North  Level FlightAware Approximate
06:22AM 10.2645 -85.3952 339° North  Level FlightAware Approximate
06:23AM 10.3752 -85.4373 339° North  Level FlightAware Approximate
06:24AM 10.4859 -85.4794 339° North  Level FlightAware Approximate
06:25AM 10.5965 -85.5215 339° North  Level FlightAware Approximate
06:26AM 10.7072 -85.5637 339° North  Level FlightAware Approximate
06:27AM 10.8178 -85.6059 339° North  Level FlightAware Approximate
06:28AM 10.9285 -85.6481 339° North  Level FlightAware Approximate
06:29AM 11.0391 -85.6904 339° North  Level FlightAware Approximate
06:30AM 11.1498 -85.7327 339° North  Level FlightAware Approximate
06:31AM 11.2604 -85.7750 339° North  Level FlightAware Approximate
06:32AM 11.3710 -85.8174 339° North  Level FlightAware Approximate
06:33AM 11.4816 -85.8597 339° North  Level FlightAware Approximate
06:34AM 11.5922 -85.9022 339° North  Level FlightAware Approximate
06:35AM 11.7028 -85.9446 339° North  Level FlightAware Approximate
06:36AM 11.8134 -85.9871 339° North  Level FlightAware Approximate
06:37AM 11.9240 -86.0297 339° North  Level FlightAware Approximate
06:38AM 12.0346 -86.0722 339° North  Level FlightAware Approximate
06:39AM 12.1452 -86.1148 339° North  Level FlightAware Approximate
06:40AM 12.2558 -86.1574 339° North  Level FlightAware Approximate
06:41AM 12.3664 -86.2001 339° North  Level FlightAware Approximate
06:42AM 12.4769 -86.2428 339° North  Level FlightAware Approximate
06:43AM 12.5875 -86.2855 339° North  Level FlightAware Approximate
06:44AM 12.6980 -86.3283 339° North  Level FlightAware Approximate
06:45AM 12.8086 -86.3711 339° North  Level FlightAware Approximate
06:46AM 12.9191 -86.4139 339° North  Level FlightAware Approximate
06:47AM 13.0296 -86.4568 339° North  Level FlightAware Approximate
06:48AM 13.1402 -86.4997 339° North  Level FlightAware Approximate
06:49AM 13.2507 -86.5426 339° North  Level FlightAware Approximate
06:50AM 13.3612 -86.5856 339° North  Level FlightAware Approximate
06:51AM 13.4717 -86.6286 339° North  Level FlightAware Approximate
06:52AM 13.5822 -86.6717 339° North  Level FlightAware Approximate
06:53AM 13.6927 -86.7148 339° North  Level FlightAware Approximate
06:54AM 13.8032 -86.7580 339° North  Level FlightAware Approximate
06:55AM 13.9136 -86.8012 339° North  Level FlightAware Approximate
06:56AM 14.0241 -86.8444 339° North  Level FlightAware Approximate
06:57AM 14.1346 -86.8877 339° North  Level FlightAware Approximate
06:58AM 14.2450 -86.9310 339° North  Level FlightAware Approximate
06:59AM 14.3554 -86.9743 339° North  Level FlightAware Approximate
07:00AM 14.4659 -87.0178 339° North  Level FlightAware Approximate
07:01AM 14.5763 -87.0612 339° North  Level FlightAware Approximate
07:02AM 14.6867 -87.1047 339° North  Level FlightAware Approximate
07:03AM 14.7971 -87.1482 339° North  Level FlightAware Approximate
07:04AM 14.9075 -87.1918 339° North  Level FlightAware Approximate
07:05AM 15.0179 -87.2354 339° North  Level FlightAware Approximate
07:06AM 15.1283 -87.2791 339° North  Level FlightAware Approximate
07:07AM 15.2387 -87.3228 339° North  Level FlightAware Approximate
07:08AM 15.3491 -87.3666 339° North  Level FlightAware Approximate
07:09AM 15.4594 -87.4103 339° North  Level FlightAware Approximate
07:10AM 15.5698 -87.4540 339° North  Level FlightAware Approximate
07:11AM 15.6802 -87.4978 339° North  Level FlightAware Approximate
07:12AM 15.7906 -87.5416 339° North  Level FlightAware Approximate
07:13AM 15.9010 -87.5855 339° North  Level FlightAware Approximate
07:14AM 16.0113 -87.6294 339° North  Level FlightAware Approximate
07:15AM 16.1217 -87.6733 339° North  Level FlightAware Approximate
07:16AM 16.2320 -87.7173 339° North  Level FlightAware Approximate
07:17AM 16.3424 -87.7614 339° North  Level FlightAware Approximate
07:18AM 16.4527 -87.8055 339° North  Level FlightAware Approximate
07:19AM 16.5630 -87.8496 339° North  Level FlightAware Approximate
07:20AM 16.6733 -87.8938 339° North  Level FlightAware Approximate
07:21AM 16.7836 -87.9381 339° North  Level FlightAware Approximate
07:22AM 16.8939 -87.9824 339° North  Level FlightAware Approximate
07:23AM 17.0042 -88.0268 339° North  Level FlightAware Approximate
07:24AM 17.1145 -88.0712 339° North  Level FlightAware Approximate
07:25AM 17.2248 -88.1156 339° North  Level FlightAware Approximate
07:26AM 17.3350 -88.1601 339° North  Level FlightAware Approximate
07:27AM 17.4452 -88.2047 339° North  Level FlightAware Approximate
07:28AM 17.5555 -88.2493 339° North  Level FlightAware Approximate
07:29AM 17.6657 -88.2940 339° North  Level FlightAware Approximate
07:30AM 17.7759 -88.3388 339° North  Level FlightAware Approximate
07:31AM 17.8861 -88.3835 339° North  Level FlightAware Approximate
07:32AM 17.9963 -88.4284 339° North  Level FlightAware Approximate
07:33AM 18.1065 -88.4733 339° North  Level FlightAware Approximate
07:34AM 18.2166 -88.5182 339° North  Level FlightAware Approximate
07:35AM 18.3268 -88.5632 339° North  Level FlightAware Approximate
07:36AM 18.4364 -88.6098 335° Northwest  Level FlightAware Approximate
07:37AM 18.5461 -88.6560 339° North  Level FlightAware Approximate
07:38AM 18.6562 -88.7012 339° North  Level FlightAware Approximate
07:39AM 18.7664 -88.7464 339° North  Level FlightAware Approximate
07:40AM 18.8765 -88.7917 339° North  Level FlightAware Approximate
07:41AM 18.9866 -88.8371 339° North  Level FlightAware Approximate
07:42AM 19.0967 -88.8825 339° North  Level FlightAware Approximate
07:43AM 19.2067 -88.9279 339° North  Level FlightAware Approximate
07:44AM 19.3168 -88.9735 339° North  Level FlightAware Approximate
07:45AM 19.4269 -89.0191 339° North  Level FlightAware Approximate
07:46AM 19.5369 -89.0647 339° North  Level FlightAware Approximate
07:47AM 19.6470 -89.1104 339° North  Level FlightAware Approximate
07:48AM 19.7570 -89.1562 339° North  Level FlightAware Approximate
07:49AM 19.8670 -89.2020 339° North  Level FlightAware Approximate
07:50AM 19.9770 -89.2479 339° North  Level FlightAware Approximate
07:51AM 20.0870 -89.2939 339° North  Level FlightAware Approximate
07:52AM 20.1970 -89.3400 339° North  Level FlightAware Approximate
07:53AM 20.3069 -89.3860 339° North  Level FlightAware Approximate
07:54AM 20.4169 -89.4322 339° North  Level FlightAware Approximate
07:55AM 20.5268 -89.4784 339° North  Level FlightAware Approximate
07:56AM 20.6367 -89.5247 338° Northwest  Level FlightAware Approximate
07:57AM 20.7467 -89.5711 338° Northwest  Level FlightAware Approximate
07:58AM 20.8566 -89.6175 338° Northwest  Level FlightAware Approximate
07:59AM 20.9661 -89.6650 337° Northwest  Level FlightAware Approximate
08:00AM 21.0746 -89.7150 337° Northwest  Level FlightAware Approximate
08:01AM 21.1832 -89.7650 337° Northwest  Level FlightAware Approximate
08:02AM 21.2918 -89.8151 337° Northwest  Level FlightAware Approximate
08:03AM 21.4003 -89.8652 337° Northwest  Level FlightAware Approximate
08:04AM 21.5088 -89.9155 337° Northwest  Level FlightAware Approximate
08:05AM 21.6174 -89.9657 337° Northwest  Level FlightAware Approximate
08:06AM 21.7260 -90.0157 337° Northwest  Level FlightAware Approximate
08:07AM 21.8346 -90.0658 337° Northwest  Level FlightAware Approximate
08:08AM 21.9432 -90.1159 337° Northwest  Level FlightAware Approximate
08:09AM 22.0518 -90.1662 337° Northwest  Level FlightAware Approximate
08:10AM 22.1604 -90.2165 337° Northwest  Level FlightAware Approximate
08:11AM 22.2690 -90.2669 337° Northwest  Level FlightAware Approximate
08:12AM 22.3775 -90.3174 337° Northwest  Level FlightAware Approximate
08:13AM 22.4860 -90.3680 337° Northwest  Level FlightAware Approximate
08:14AM 22.5945 -90.4186 337° Northwest  Level FlightAware Approximate
08:15AM 22.7030 -90.4693 337° Northwest  Level FlightAware Approximate
08:16AM 22.8115 -90.5201 337° Northwest  Level FlightAware Approximate
08:17AM 22.9200 -90.5710 337° Northwest  Level FlightAware Approximate
08:18AM 23.0284 -90.6220 337° Northwest  Level FlightAware Approximate
08:19AM 23.1369 -90.6730 337° Northwest  Level FlightAware Approximate
08:20AM 23.2453 -90.7242 337° Northwest  Level FlightAware Approximate
08:21AM 23.3564 -90.7762 337° Northwest  Level FlightAware Approximate
08:22AM 23.4678 -90.8281 337° Northwest  Level FlightAware Approximate
08:23AM 23.5793 -90.8801 337° Northwest  Level FlightAware Approximate
08:24AM 23.6907 -90.9322 337° Northwest  Level FlightAware Approximate
08:25AM 23.8000 -90.9858 270° West  Level FlightAware Approximate
08:26AM 23.8993 -91.0470 337° Northwest  Level FlightAware Approximate
08:27AM 24.0105 -91.0996 337° Northwest  Level FlightAware Approximate
08:28AM 24.1218 -91.1523 338° Northwest  Level FlightAware Approximate
08:29AM 24.2341 -91.2022 338° Northwest  Level FlightAware Approximate
08:30AM 24.3450 -91.2558 336° Northwest  Level FlightAware Approximate
08:31AM 24.4553 -91.3109 336° Northwest  Level FlightAware Approximate
08:32AM 24.5622 -91.3733 330° Northwest  Level FlightAware Approximate
08:33AM 24.6668 -91.4406 330° Northwest  Level FlightAware Approximate
08:34AM 24.7714 -91.5080 330° Northwest  Level FlightAware Approximate
08:35AM 24.8760 -91.5755 330° Northwest  Level FlightAware Approximate
08:36AM 24.9805 -91.6431 330° Northwest  Level FlightAware Approximate
08:36AM 26.5561 -92.7025 329° Northwest 392 451 40,000  Level Houston Center
08:37AM 25.0850 -91.7108 330° Northwest  Level FlightAware Approximate
08:37AM 26.6492 -92.7633 330° Northwest 390 449 40,000  Level Houston Center
08:38AM 25.1895 -91.7787 330° Northwest  Level FlightAware Approximate
08:38AM 26.7425 -92.8203 331° Northwest 387 445 40,000  Level Houston Center
08:39AM 25.2939 -91.8467 330° Northwest  Level FlightAware Approximate
08:39AM 26.8331 -92.8844 328° Northwest 384 442 40,000  Level Houston Center
08:40AM 25.3983 -91.9148 329° Northwest  Level FlightAware Approximate
08:40AM 26.9128 -92.9589 320° Northwest 376 433 40,000  Level Houston Center
08:41AM 25.5027 -91.9830 329° Northwest  Level FlightAware Approximate
08:41AM 27.0097 -93.0525 319° Northwest 378 435 40,000  Level Houston Center
08:42AM 27.0950 -93.1225 324° Northwest 380 437 40,000  Level Houston Center
08:43AM 27.1778 -93.2000 320° Northwest 382 440 40,000  Level Houston Center
08:44AM 27.2578 -93.2811 318° Northwest 385 443 40,000  Level Houston Center
08:45AM 27.3428 -93.3561 322° Northwest 387 445 40,000  Level Houston Center
08:46AM 27.4297 -93.4272 324° Northwest 388 447 40,000  Level Houston Center
08:47AM 27.5297 -93.5167 322° Northwest 384 442 40,000  Level Houston Center
08:48AM 27.6114 -93.5939 320° Northwest 382 440 40,000  Level Houston Center
08:50AM 27.6917 -93.6697 320° Northwest 377 434 40,000  Level Houston Center
08:51AM 27.7733 -93.7436 321° Northwest 376 433 40,000  Level Houston Center
08:52AM 27.8539 -93.8194 320° Northwest 376 433 40,000  Level Houston Center
08:53AM 27.9339 -93.8961 320° Northwest 377 434 40,000  Level Houston Center
08:54AM 28.0147 -93.9725 320° Northwest 378 435 40,000  Level Houston Center
08:55AM 28.1108 -94.0656 320° Northwest 378 435 40,000  Level Houston Center
08:56AM 28.1914 -94.1444 319° Northwest 381 438 40,000  Level Houston Center
08:57AM 28.2875 -94.2039 331° Northwest 388 447 40,000  Level Houston Center
08:58AM 28.3819 -94.2669 330° Northwest 393 452 40,000  Level Houston Center
08:59AM 28.4758 -94.3294 330° Northwest 392 451 40,000  Level Houston Center
09:00AM 28.5700 -94.3919 330° Northwest 390 449 40,000  Level Houston Center
09:01AM 28.6631 -94.4547 329° Northwest 388 447 40,000  Level Houston Center
09:02AM 28.7739 -94.5294 329° Northwest 386 444 40,000  Level Houston Center
09:03AM 28.8658 -94.5914 329° Northwest 385 443 40,000  Level Houston Center
09:04AM 28.9586 -94.6528 330° Northwest 385 443 40,000  Level Houston Center
09:05AM 29.0497 -94.7147 329° Northwest 383 441 40,000  Level Houston Center
09:06AM 29.1425 -94.7775 329° Northwest 386 444 40,000  Level Houston Center
09:07AM 29.2347 -94.8397 330° Northwest 386 444 40,000  Level Houston Center
09:08AM 29.3444 -94.9147 329° Northwest 383 441 40,000  Level Houston Center
09:09AM 29.4364 -94.9783 329° Northwest 386 444 40,000  Level Houston Center
09:10AM 29.5289 -95.0414 329° Northwest 387 445 40,000  Level Houston Center
09:11AM 29.6292 -95.1128 328° Northwest 396 456 40,000  Level Houston Center
09:12AM 29.7217 -95.1778 329° Northwest 393 452 40,000  Level Houston Center
09:13AM 29.8261 -95.2500 329° Northwest 403 464 40,000  Level Houston Center
09:14AM 29.9194 -95.3161 328° Northwest 398 458 40,000  Level Houston Center
09:15AM 30.0367 -95.3408 350° North 450 518 40,000  Level Houston Center
09:16AM 30.1631 -95.3325 North 461 531 40,000  Level Houston Center
09:17AM 30.3169 -95.3219 North 464 534 40,000  Level Houston Center
09:18AM 30.4492 -95.3133 North 465 535 40,000  Level Houston Center
09:19AM 30.5808 -95.3047 North 471 542 40,000  Level Houston Center
09:20AM 30.7117 -95.2967 North 470 541 40,000  Level Houston Center
09:22AM 30.8422 -95.2881 North 469 540 40,000  Level Houston Center
09:23AM 30.9733 -95.2803 North 466 536 40,000 -540 Level Houston Center
09:24AM 31.1492 -95.2725 North 459 528 38,900 -1,260 Descending Fort Worth Center
09:25AM 31.2744 -95.2647 North 459 528 37,200 -1,800 Descending Fort Worth Center
09:26AM 31.3958 -95.2839 352° North 443 510 35,400 -2,880 Descending Fort Worth Center
09:27AM 31.4828 -95.3647 322° Northwest 405 466 31,600 -3,240 Descending Fort Worth Center
09:28AM 31.5636 -95.4678 313° West 412 474 28,900 -2,520 Descending Fort Worth Center
09:29AM 31.6467 -95.5661 315° West 417 480 26,600 -2,220 Descending Fort Worth Center
09:30AM 31.7125 -95.6528 312° West 412 474 24,500 -1,320 Descending Fort Worth Center
09:31AM 31.7889 -95.7442 315° West 407 468 24,000 -300 Descending Fort Worth Center
09:32AM 31.8672 -95.8331 316° Northwest 402 463 24,000 -240 Level Fort Worth Center
09:33AM 31.9394 -95.9225 314° West 392 451 23,600 -240 Descending Fort Worth Center
09:34AM 32.0219 -96.0217 314° West 387 445 23,600 -180 Level Fort Worth Center
09:35AM 32.0981 -96.1111 315° West 392 451 23,300 -1,500 Descending Fort Worth Center
09:36AM 32.1719 -96.2033 313° West 392 451 20,700 -2,700 Descending Fort Worth Center
09:37AM 32.2522 -96.3006 314° West 401 461 17,900 -2,400 Descending Fort Worth Center
09:38AM 32.3197 -96.3783 316° Northwest 389 448 16,000 -1,440 Descending Fort Worth Center
09:39AM 32.3936 -96.4686 314° West 359 413 15,100 -1,800 Descending Fort Worth Center
09:40AM 32.4589 -96.5442 316° Northwest 331 381 12,400 -2,100 Descending Fort Worth Center
09:41AM 32.5261 -96.6275 314° West 336 387 11,000 -720 Descending Fort Worth Center
09:42AM 32.5914 -96.7058 315° West 341 392 11,000  Level Fort Worth Center
09:43AM 32.6564 -96.7867 314° West 341 392 11,000  Level Fort Worth Center
09:44AM 32.7000 -96.8333 318° Northwest 301 346 11,000  Level Dallas / Fort Worth TRACON
09:44AM 32.7500 -96.8833 320° Northwest 246 283 11,000 -300 Level Dallas / Fort Worth TRACON
09:46AM 32.8167 -96.9000 348° North 253 291 10,400 -900 Descending Dallas / Fort Worth TRACON
09:47AM 32.8833 -96.9000 360° North 249 287 9,100 -1,440 Descending Dallas / Fort Worth TRACON
09:48AM 32.9667 -96.9167 350° North 236 272 7,500 -1,740 Descending Dallas / Fort Worth TRACON
09:48AM 33.0167 -96.9167 360° North 229 264 5,900 -1,800 Descending Dallas / Fort Worth TRACON